sensor_id;sensor_type;location;lat;lon;timestamp;pressure;altitude;pressure_sealevel;temperature;humidity
5777;BME280;2914;42.668;23.346;2023-05-01T00:00:10;94466.83;;;14.48;74.60
5777;BME280;2914;42.668;23.346;2023-05-01T00:02:40;94469.00;;;14.48;75.01
5777;BME280;2914;42.668;23.346;2023-05-01T00:05:10;94471.31;;;14.51;74.92
5777;BME280;2914;42.668;23.346;2023-05-01T00:07:39;94470.63;;;14.53;74.86
5777;BME280;2914;42.668;23.346;2023-05-01T00:10:09;94472.46;;;14.57;74.80
5777;BME280;2914;42.668;23.346;2023-05-01T00:12:38;94467.85;;;14.42;75.49
5777;BME280;2914;42.668;23.346;2023-05-01T00:15:09;94470.34;;;14.40;75.76
5777;BME280;2914;42.668;23.346;2023-05-01T00:17:38;94471.16;;;14.40;75.60
5777;BME280;2914;42.668;23.346;2023-05-01T00:20:10;94472.16;;;14.31;75.82
5777;BME280;2914;42.668;23.346;2023-05-01T00:22:39;94476.13;;;14.39;75.44
5777;BME280;2914;42.668;23.346;2023-05-01T00:25:09;94480.28;;;14.38;75.49
5777;BME280;2914;42.668;23.346;2023-05-01T00:27:38;94473.48;;;14.27;76.26
5777;BME280;2914;42.668;23.346;2023-05-01T00:30:09;94471.17;;;14.20;76.63
5777;BME280;2914;42.668;23.346;2023-05-01T00:32:38;94476.47;;;14.28;76.37
5777;BME280;2914;42.668;23.346;2023-05-01T00:35:10;94478.30;;;14.36;76.01
5777;BME280;2914;42.668;23.346;2023-05-01T00:37:40;94479.47;;;14.25;76.71
5777;BME280;2914;42.668;23.346;2023-05-01T00:40:09;94475.83;;;14.26;76.92
5777;BME280;2914;42.668;23.346;2023-05-01T00:42:38;94485.92;;;14.31;76.51
5777;BME280;2914;42.668;23.346;2023-05-01T00:45:11;94485.25;;;14.24;76.97
5777;BME280;2914;42.668;23.346;2023-05-01T00:47:40;94488.41;;;14.32;76.63
5777;BME280;2914;42.668;23.346;2023-05-01T00:50:11;94491.58;;;14.32;76.77
5777;BME280;2914;42.668;23.346;2023-05-01T00:52:40;94494.70;;;14.31;76.74
5777;BME280;2914;42.668;23.346;2023-05-01T00:55:10;94493.89;;;14.18;77.68
5777;BME280;2914;42.668;23.346;2023-05-01T00:57:40;94489.91;;;14.06;78.40
5777;BME280;2914;42.668;23.346;2023-05-01T01:00:11;94495.86;;;14.00;78.95
5777;BME280;2914;42.668;23.346;2023-05-01T01:02:40;94492.05;;;14.02;78.85
5777;BME280;2914;42.668;23.346;2023-05-01T01:05:10;94497.69;;;13.95;79.18
5777;BME280;2914;42.668;23.346;2023-05-01T01:07:45;94495.03;;;13.99;78.78
5777;BME280;2914;42.668;23.346;2023-05-01T01:10:18;94499.17;;;13.94;79.43
5777;BME280;2914;42.668;23.346;2023-05-01T01:12:51;94497.17;;;13.91;79.45
5777;BME280;2914;42.668;23.346;2023-05-01T01:15:25;94498.67;;;13.94;79.49
5777;BME280;2914;42.668;23.346;2023-05-01T01:17:57;94502.17;;;13.99;79.38
5777;BME280;2914;42.668;23.346;2023-05-01T01:23:51;94507.48;;;14.15;78.81
5777;BME280;2914;42.668;23.346;2023-05-01T01:29:47;94511.13;;;14.18;77.65
5777;BME280;2914;42.668;23.346;2023-05-01T01:32:33;94519.42;;;14.15;77.91
5777;BME280;2914;42.668;23.346;2023-05-01T01:35:04;94520.08;;;14.21;77.37
5777;BME280;2914;42.668;23.346;2023-05-01T01:37:38;94515.93;;;14.23;77.44
5777;BME280;2914;42.668;23.346;2023-05-01T01:40:13;94517.77;;;14.14;78.32
5777;BME280;2914;42.668;23.346;2023-05-01T01:42:45;94520.91;;;14.05;78.73
5777;BME280;2914;42.668;23.346;2023-05-01T01:45:18;94520.23;;;14.03;79.30
5777;BME280;2914;42.668;23.346;2023-05-01T01:47:47;94516.44;;;14.10;79.05
5777;BME280;2914;42.668;23.346;2023-05-01T01:50:19;94513.94;;;13.96;79.69
5777;BME280;2914;42.668;23.346;2023-05-01T01:52:50;94514.91;;;13.87;80.14
5777;BME280;2914;42.668;23.346;2023-05-01T01:55:23;94510.58;;;13.78;80.86
5777;BME280;2914;42.668;23.346;2023-05-01T01:57:54;94514.88;;;13.74;81.29
5777;BME280;2914;42.668;23.346;2023-05-01T02:00:24;94509.20;;;13.57;82.46
5777;BME280;2914;42.668;23.346;2023-05-01T02:02:54;94510.56;;;13.69;82.56
5777;BME280;2914;42.668;23.346;2023-05-01T02:05:26;94502.61;;;13.69;82.86
5777;BME280;2914;42.668;23.346;2023-05-01T02:07:58;94501.61;;;13.66;82.79
5777;BME280;2914;42.668;23.346;2023-05-01T02:10:28;94504.27;;;13.70;82.33
5777;BME280;2914;42.668;23.346;2023-05-01T02:12:58;94507.27;;;13.71;81.91
5777;BME280;2914;42.668;23.346;2023-05-01T02:15:29;94503.28;;;13.67;81.81
5777;BME280;2914;42.668;23.346;2023-05-01T02:18:01;94508.58;;;13.67;82.12
5777;BME280;2914;42.668;23.346;2023-05-01T02:20:32;94512.22;;;13.66;82.63
5777;BME280;2914;42.668;23.346;2023-05-01T02:23:03;94512.39;;;13.69;83.30
5777;BME280;2914;42.668;23.346;2023-05-01T02:25:35;94510.25;;;13.68;83.80
5777;BME280;2914;42.668;23.346;2023-05-01T02:28:12;94500.29;;;13.66;84.09
5777;BME280;2914;42.668;23.346;2023-05-01T02:30:39;94507.06;;;13.56;84.92
5777;BME280;2914;42.668;23.346;2023-05-01T02:33:08;94508.23;;;13.66;84.64
5777;BME280;2914;42.668;23.346;2023-05-01T02:35:41;94510.25;;;13.72;84.65
5777;BME280;2914;42.668;23.346;2023-05-01T02:38:11;94508.59;;;13.71;84.92
5777;BME280;2914;42.668;23.346;2023-05-01T02:40:43;94507.43;;;13.70;85.17
5777;BME280;2914;42.668;23.346;2023-05-01T02:43:15;94505.20;;;13.49;87.26
5777;BME280;2914;42.668;23.346;2023-05-01T02:45:45;94506.54;;;13.53;87.12
5777;BME280;2914;42.668;23.346;2023-05-01T02:48:19;94509.02;;;13.54;86.87
5777;BME280;2914;42.668;23.346;2023-05-01T02:50:49;94504.87;;;13.44;87.23
5777;BME280;2914;42.668;23.346;2023-05-01T02:53:20;94507.45;;;13.31;88.05
5777;BME280;2914;42.668;23.346;2023-05-01T02:55:49;94507.81;;;13.36;88.28
5777;BME280;2914;42.668;23.346;2023-05-01T02:58:19;94505.86;;;13.43;88.08
5777;BME280;2914;42.668;23.346;2023-05-01T03:00:49;94512.66;;;13.45;87.52
5777;BME280;2914;42.668;23.346;2023-05-01T03:03:18;94514.61;;;13.39;86.39
5777;BME280;2914;42.668;23.346;2023-05-01T03:05:50;94517.10;;;13.40;86.36
5777;BME280;2914;42.668;23.346;2023-05-01T03:08:19;94513.24;;;13.35;86.47
5777;BME280;2914;42.668;23.346;2023-05-01T03:10:48;94515.72;;;13.32;85.60
5777;BME280;2914;42.668;23.346;2023-05-01T03:13:17;94522.52;;;13.35;84.42
5777;BME280;2914;42.668;23.346;2023-05-01T03:15:46;94526.45;;;13.27;84.97
5777;BME280;2914;42.668;23.346;2023-05-01T03:18:15;94528.58;;;13.15;85.84
5777;BME280;2914;42.668;23.346;2023-05-01T03:20:52;94525.92;;;13.15;86.39
5777;BME280;2914;42.668;23.346;2023-05-01T03:23:21;94525.56;;;13.10;87.06
5777;BME280;2914;42.668;23.346;2023-05-01T03:25:50;94527.21;;;13.06;87.89
5777;BME280;2914;42.668;23.346;2023-05-01T03:28:21;94527.34;;;13.05;88.43
5777;BME280;2914;42.668;23.346;2023-05-01T03:30:51;94533.83;;;13.06;88.06
5777;BME280;2914;42.668;23.346;2023-05-01T03:33:20;94527.83;;;13.00;88.07
5777;BME280;2914;42.668;23.346;2023-05-01T03:35:52;94535.14;;;13.02;88.23
5777;BME280;2914;42.668;23.346;2023-05-01T03:38:22;94540.06;;;12.97;88.64
5777;BME280;2914;42.668;23.346;2023-05-01T03:40:53;94542.00;;;12.91;89.21
5777;BME280;2914;42.668;23.346;2023-05-01T03:43:22;94536.81;;;12.81;89.98
5777;BME280;2914;42.668;23.346;2023-05-01T03:45:52;94541.95;;;12.83;90.09
5777;BME280;2914;42.668;23.346;2023-05-01T03:48:21;94549.58;;;12.82;90.36
5777;BME280;2914;42.668;23.346;2023-05-01T03:50:51;94544.76;;;12.81;90.16
5777;BME280;2914;42.668;23.346;2023-05-01T03:53:20;94549.08;;;12.82;89.77
5777;BME280;2914;42.668;23.346;2023-05-01T03:55:49;94548.52;;;12.75;89.57
5777;BME280;2914;42.668;23.346;2023-05-01T03:58:18;94563.11;;;12.56;90.76
5777;BME280;2914;42.668;23.346;2023-05-01T04:00:48;94541.77;;;12.32;91.39
5777;BME280;2914;42.668;23.346;2023-05-01T04:03:18;94565.92;;;12.55;90.74
5777;BME280;2914;42.668;23.346;2023-05-01T04:05:47;94563.52;;;12.66;89.89
5777;BME280;2914;42.668;23.346;2023-05-01T04:08:19;94561.88;;;12.69;90.47
5777;BME280;2914;42.668;23.346;2023-05-01T04:10:48;94562.47;;;12.81;90.01
5777;BME280;2914;42.668;23.346;2023-05-01T04:13:17;94559.53;;;12.88;89.78
5777;BME280;2914;42.668;23.346;2023-05-01T04:15:46;94561.72;;;12.97;89.05
5777;BME280;2914;42.668;23.346;2023-05-01T04:18:16;94565.42;;;13.04;89.15
5777;BME280;2914;42.668;23.346;2023-05-01T04:20:45;94575.86;;;13.05;89.62
5777;BME280;2914;42.668;23.346;2023-05-01T04:23:14;94558.91;;;13.24;89.09
5777;BME280;2914;42.668;23.346;2023-05-01T04:25:43;94561.70;;;13.49;87.10
5777;BME280;2914;42.668;23.346;2023-05-01T04:28:13;94568.55;;;13.64;86.51
5777;BME280;2914;42.668;23.346;2023-05-01T04:30:43;94565.06;;;13.68;86.10
5777;BME280;2914;42.668;23.346;2023-05-01T04:33:12;94566.06;;;13.75;86.21
5777;BME280;2914;42.668;23.346;2023-05-01T04:35:41;94569.26;;;13.87;86.25
5777;BME280;2914;42.668;23.346;2023-05-01T04:38:10;94566.98;;;14.04;86.17
5777;BME280;2914;42.668;23.346;2023-05-01T04:40:39;94569.83;;;14.19;85.34
5777;BME280;2914;42.668;23.346;2023-05-01T04:43:08;94572.33;;;14.29;84.45
5777;BME280;2914;42.668;23.346;2023-05-01T04:45:38;94575.47;;;14.45;83.35
5777;BME280;2914;42.668;23.346;2023-05-01T04:48:08;94578.80;;;14.51;82.59
5777;BME280;2914;42.668;23.346;2023-05-01T04:50:37;94582.11;;;14.57;82.55
5777;BME280;2914;42.668;23.346;2023-05-01T04:53:06;94579.63;;;14.60;82.09
5777;BME280;2914;42.668;23.346;2023-05-01T04:55:35;94582.81;;;14.76;82.11
5777;BME280;2914;42.668;23.346;2023-05-01T04:58:04;94578.00;;;14.80;81.11
5777;BME280;2914;42.668;23.346;2023-05-01T05:00:33;94583.61;;;14.93;80.20
5777;BME280;2914;42.668;23.346;2023-05-01T05:03:02;94589.10;;;14.83;80.02
5777;BME280;2914;42.668;23.346;2023-05-01T05:05:32;94591.73;;;15.04;80.84
5777;BME280;2914;42.668;23.346;2023-05-01T05:08:01;94592.86;;;15.18;79.08
5777;BME280;2914;42.668;23.346;2023-05-01T05:10:30;94594.36;;;15.16;79.31
5777;BME280;2914;42.668;23.346;2023-05-01T05:13:00;94599.30;;;15.36;78.92
5777;BME280;2914;42.668;23.346;2023-05-01T05:15:29;94602.22;;;15.57;77.93
5777;BME280;2914;42.668;23.346;2023-05-01T05:17:58;94611.83;;;15.71;76.64
5777;BME280;2914;42.668;23.346;2023-05-01T05:20:27;94613.64;;;15.83;75.27
5777;BME280;2914;42.668;23.346;2023-05-01T05:22:56;94613.56;;;15.99;74.14
5777;BME280;2914;42.668;23.346;2023-05-01T05:25:25;94611.68;;;16.08;73.28
5777;BME280;2914;42.668;23.346;2023-05-01T05:27:54;94620.95;;;16.16;72.91
5777;BME280;2914;42.668;23.346;2023-05-01T05:30:23;94623.50;;;16.05;72.34
5777;BME280;2914;42.668;23.346;2023-05-01T05:32:52;94623.77;;;16.19;72.72
5777;BME280;2914;42.668;23.346;2023-05-01T05:35:21;94626.41;;;16.23;72.08
5777;BME280;2914;42.668;23.346;2023-05-01T05:37:50;94624.18;;;16.31;72.41
5777;BME280;2914;42.668;23.346;2023-05-01T05:40:19;94617.63;;;16.41;72.08
5777;BME280;2914;42.668;23.346;2023-05-01T05:42:48;94617.73;;;16.52;71.85
5777;BME280;2914;42.668;23.346;2023-05-01T05:45:17;94623.62;;;16.67;71.16
5777;BME280;2914;42.668;23.346;2023-05-01T05:47:47;94621.57;;;16.73;70.66
5777;BME280;2914;42.668;23.346;2023-05-01T05:50:16;94621.20;;;16.76;70.01
5777;BME280;2914;42.668;23.346;2023-05-01T05:52:45;94622.35;;;16.82;69.80
5777;BME280;2914;42.668;23.346;2023-05-01T05:55:14;94626.47;;;16.84;69.94
5777;BME280;2914;42.668;23.346;2023-05-01T05:57:43;94628.62;;;17.12;70.23
5777;BME280;2914;42.668;23.346;2023-05-01T06:00:15;94626.98;;;17.26;68.00
5777;BME280;2914;42.668;23.346;2023-05-01T06:02:45;94631.58;;;17.32;67.63
5777;BME280;2914;42.668;23.346;2023-05-01T06:05:14;94630.86;;;17.38;67.19
5777;BME280;2914;42.668;23.346;2023-05-01T06:07:43;94636.07;;;17.51;66.40
5777;BME280;2914;42.668;23.346;2023-05-01T06:10:12;94631.49;;;17.40;66.84
5777;BME280;2914;42.668;23.346;2023-05-01T06:12:41;94640.61;;;17.61;67.20
5777;BME280;2914;42.668;23.346;2023-05-01T06:15:10;94641.09;;;17.79;67.18
5777;BME280;2914;42.668;23.346;2023-05-01T06:17:42;94639.62;;;18.07;65.97
5777;BME280;2914;42.668;23.346;2023-05-01T06:20:12;94646.12;;;18.34;65.30
5777;BME280;2914;42.668;23.346;2023-05-01T06:22:41;94646.89;;;18.50;63.70
5777;BME280;2914;42.668;23.346;2023-05-01T06:25:10;94644.09;;;18.47;62.67
5777;BME280;2914;42.668;23.346;2023-05-01T06:27:40;94647.11;;;18.59;62.83
5777;BME280;2914;42.668;23.346;2023-05-01T06:30:12;94646.27;;;18.69;63.03
5777;BME280;2914;42.668;23.346;2023-05-01T06:32:41;94636.93;;;18.80;61.90
5777;BME280;2914;42.668;23.346;2023-05-01T06:35:11;94639.14;;;18.76;61.17
5777;BME280;2914;42.668;23.346;2023-05-01T06:37:40;94644.62;;;18.79;61.19
5777;BME280;2914;42.668;23.346;2023-05-01T06:40:11;94639.04;;;19.06;62.69
5777;BME280;2914;42.668;23.346;2023-05-01T06:42:40;94642.23;;;19.34;61.78
5777;BME280;2914;42.668;23.346;2023-05-01T06:45:10;94639.52;;;19.56;60.70
5777;BME280;2914;42.668;23.346;2023-05-01T06:47:39;94644.03;;;19.66;58.54
5777;BME280;2914;42.668;23.346;2023-05-01T06:50:10;94645.28;;;19.70;58.40
5777;BME280;2914;42.668;23.346;2023-05-01T06:52:40;94642.55;;;19.46;57.18
5777;BME280;2914;42.668;23.346;2023-05-01T06:55:11;94641.72;;;19.06;58.81
5777;BME280;2914;42.668;23.346;2023-05-01T06:57:40;94640.48;;;19.30;60.36
5777;BME280;2914;42.668;23.346;2023-05-01T07:00:11;94643.61;;;19.52;60.34
5777;BME280;2914;42.668;23.346;2023-05-01T07:02:41;94649.45;;;19.62;59.11
5777;BME280;2914;42.668;23.346;2023-05-01T07:05:12;94648.17;;;19.86;58.63
5777;BME280;2914;42.668;23.346;2023-05-01T07:07:41;94644.23;;;19.99;58.77
5777;BME280;2914;42.668;23.346;2023-05-01T07:10:10;94650.48;;;20.13;56.33
5777;BME280;2914;42.668;23.346;2023-05-01T07:12:40;94653.27;;;20.16;55.91
5777;BME280;2914;42.668;23.346;2023-05-01T07:15:10;94652.58;;;20.25;55.99
5777;BME280;2914;42.668;23.346;2023-05-01T07:17:40;94656.07;;;20.19;55.54
5777;BME280;2914;42.668;23.346;2023-05-01T07:20:11;94653.22;;;20.27;54.92
5777;BME280;2914;42.668;23.346;2023-05-01T07:22:40;94656.92;;;20.26;55.57
5777;BME280;2914;42.668;23.346;2023-05-01T07:25:09;94659.63;;;20.32;55.68
5777;BME280;2914;42.668;23.346;2023-05-01T07:27:38;94661.11;;;20.17;55.06
5777;BME280;2914;42.668;23.346;2023-05-01T07:30:10;94660.13;;;20.08;55.33
5777;BME280;2914;42.668;23.346;2023-05-01T07:32:39;94657.18;;;19.96;55.60
5777;BME280;2914;42.668;23.346;2023-05-01T07:35:09;94659.03;;;20.13;55.77
5777;BME280;2914;42.668;23.346;2023-05-01T07:37:38;94659.59;;;20.26;56.31
5777;BME280;2914;42.668;23.346;2023-05-01T07:40:09;94656.77;;;20.41;54.63
5777;BME280;2914;42.668;23.346;2023-05-01T07:42:38;94661.17;;;20.31;55.41
5777;BME280;2914;42.668;23.346;2023-05-01T07:45:08;94665.19;;;20.31;54.92
5777;BME280;2914;42.668;23.346;2023-05-01T07:47:38;94658.31;;;20.39;54.97
5777;BME280;2914;42.668;23.346;2023-05-01T07:50:11;94654.91;;;20.41;54.42
5777;BME280;2914;42.668;23.346;2023-05-01T07:52:40;94661.90;;;20.36;54.50
5777;BME280;2914;42.668;23.346;2023-05-01T07:55:10;94658.00;;;20.38;54.09
5777;BME280;2914;42.668;23.346;2023-05-01T07:57:39;94659.45;;;20.41;53.58
5777;BME280;2914;42.668;23.346;2023-05-01T08:00:11;94655.70;;;19.58;55.70
5777;BME280;2914;42.668;23.346;2023-05-01T08:02:40;94652.20;;;19.19;57.16
5777;BME280;2914;42.668;23.346;2023-05-01T08:05:10;94655.61;;;19.34;57.39
5777;BME280;2914;42.668;23.346;2023-05-01T08:07:39;94648.51;;;19.48;57.63
5777;BME280;2914;42.668;23.346;2023-05-01T08:10:09;94656.48;;;19.70;57.70
5777;BME280;2914;42.668;23.346;2023-05-01T08:12:39;94654.25;;;19.84;57.78
5777;BME280;2914;42.668;23.346;2023-05-01T08:15:09;94653.78;;;19.52;58.15
5777;BME280;2914;42.668;23.346;2023-05-01T08:17:41;94653.59;;;19.25;59.44
5777;BME280;2914;42.668;23.346;2023-05-01T08:20:13;94656.72;;;19.29;59.57
5777;BME280;2914;42.668;23.346;2023-05-01T08:22:42;94645.49;;;19.40;60.66
5777;BME280;2914;42.668;23.346;2023-05-01T08:25:11;94649.75;;;19.45;57.17
5777;BME280;2914;42.668;23.346;2023-05-01T08:27:40;94647.67;;;19.58;56.08
5777;BME280;2914;42.668;23.346;2023-05-01T08:30:10;94657.42;;;19.73;53.75
5777;BME280;2914;42.668;23.346;2023-05-01T08:32:39;94654.98;;;19.89;51.87
5777;BME280;2914;42.668;23.346;2023-05-01T08:35:09;94655.96;;;19.98;49.47
5777;BME280;2914;42.668;23.346;2023-05-01T08:37:38;94660.42;;;20.02;48.99
5777;BME280;2914;42.668;23.346;2023-05-01T08:40:09;94655.83;;;20.13;49.45
5777;BME280;2914;42.668;23.346;2023-05-01T08:42:38;94658.51;;;20.13;48.26
5777;BME280;2914;42.668;23.346;2023-05-01T08:45:09;94651.81;;;19.22;50.30
5777;BME280;2914;42.668;23.346;2023-05-01T08:47:39;94654.73;;;19.27;52.12
5777;BME280;2914;42.668;23.346;2023-05-01T08:50:10;94651.37;;;19.29;52.28
5777;BME280;2914;42.668;23.346;2023-05-01T08:52:42;94647.31;;;19.11;53.40
5777;BME280;2914;42.668;23.346;2023-05-01T08:55:13;94643.73;;;19.15;53.18
5777;BME280;2914;42.668;23.346;2023-05-01T08:57:46;94650.65;;;18.92;52.53
5777;BME280;2914;42.668;23.346;2023-05-01T09:00:18;94644.55;;;18.72;53.51
5777;BME280;2914;42.668;23.346;2023-05-01T09:02:48;94646.73;;;18.94;52.38
5777;BME280;2914;42.668;23.346;2023-05-01T09:05:19;94643.02;;;18.85;53.60
5777;BME280;2914;42.668;23.346;2023-05-01T09:07:48;94636.96;;;18.91;54.83
5777;BME280;2914;42.668;23.346;2023-05-01T09:10:18;94637.35;;;18.88;53.54
5777;BME280;2914;42.668;23.346;2023-05-01T09:12:51;94638.56;;;18.96;53.40
5777;BME280;2914;42.668;23.346;2023-05-01T09:15:20;94638.69;;;18.88;52.42
5777;BME280;2914;42.668;23.346;2023-05-01T09:17:50;94628.21;;;19.14;52.86
5777;BME280;2914;42.668;23.346;2023-05-01T09:20:20;94639.58;;;19.23;52.54
5777;BME280;2914;42.668;23.346;2023-05-01T09:22:49;94634.41;;;19.32;52.65
5777;BME280;2914;42.668;23.346;2023-05-01T09:25:18;94636.55;;;19.44;53.48
5777;BME280;2914;42.668;23.346;2023-05-01T09:27:48;94643.68;;;19.47;52.63
5777;BME280;2914;42.668;23.346;2023-05-01T09:30:31;94641.80;;;19.59;53.12
5777;BME280;2914;42.668;23.346;2023-05-01T09:33:10;94643.53;;;19.56;53.15
5777;BME280;2914;42.668;23.346;2023-05-01T09:35:53;94635.68;;;19.65;54.47
5777;BME280;2914;42.668;23.346;2023-05-01T09:38:24;94640.23;;;19.71;52.32
5777;BME280;2914;42.668;23.346;2023-05-01T09:40:55;94640.88;;;19.45;52.45
5777;BME280;2914;42.668;23.346;2023-05-01T09:43:25;94636.52;;;19.55;53.11
5777;BME280;2914;42.668;23.346;2023-05-01T09:46:01;94631.73;;;19.61;53.03
5777;BME280;2914;42.668;23.346;2023-05-01T09:48:31;94630.86;;;19.71;53.14
5777;BME280;2914;42.668;23.346;2023-05-01T09:51:00;94625.02;;;19.72;53.43
5777;BME280;2914;42.668;23.346;2023-05-01T09:53:40;94633.00;;;19.65;53.00
5777;BME280;2914;42.668;23.346;2023-05-01T09:56:09;94629.14;;;19.57;52.86
5777;BME280;2914;42.668;23.346;2023-05-01T09:58:39;94635.40;;;19.71;53.30
5777;BME280;2914;42.668;23.346;2023-05-01T10:01:08;94632.31;;;19.56;53.12
5777;BME280;2914;42.668;23.346;2023-05-01T10:03:37;94625.16;;;19.46;53.14
5777;BME280;2914;42.668;23.346;2023-05-01T10:06:06;94621.45;;;19.64;51.21
5777;BME280;2914;42.668;23.346;2023-05-01T10:08:47;94627.33;;;19.64;51.48
5777;BME280;2914;42.668;23.346;2023-05-01T10:11:16;94624.66;;;19.64;51.28
5777;BME280;2914;42.668;23.346;2023-05-01T10:13:45;94635.06;;;19.52;51.21
5777;BME280;2914;42.668;23.346;2023-05-01T10:16:32;94615.56;;;19.58;51.28
5777;BME280;2914;42.668;23.346;2023-05-01T10:19:02;94622.16;;;19.45;50.11
5777;BME280;2914;42.668;23.346;2023-05-01T10:21:32;94615.32;;;19.53;50.26
5777;BME280;2914;42.668;23.346;2023-05-01T10:24:02;94616.24;;;19.49;50.80
5777;BME280;2914;42.668;23.346;2023-05-01T10:26:33;94614.53;;;19.42;50.58
5777;BME280;2914;42.668;23.346;2023-05-01T10:29:02;94608.07;;;19.29;51.16
5777;BME280;2914;42.668;23.346;2023-05-01T10:31:32;94616.88;;;19.41;51.72
5777;BME280;2914;42.668;23.346;2023-05-01T10:34:02;94608.63;;;19.53;51.73
5777;BME280;2914;42.668;23.346;2023-05-01T10:36:35;94608.67;;;19.60;49.86
5777;BME280;2914;42.668;23.346;2023-05-01T10:39:06;94611.75;;;19.57;49.72
5777;BME280;2914;42.668;23.346;2023-05-01T10:42:04;94614.11;;;19.56;51.71
5777;BME280;2914;42.668;23.346;2023-05-01T10:44:36;94620.96;;;19.65;49.32
5777;BME280;2914;42.668;23.346;2023-05-01T10:50:10;94614.69;;;19.69;45.84
5777;BME280;2914;42.668;23.346;2023-05-01T10:53:15;94618.36;;;19.61;45.73
5777;BME280;2914;42.668;23.346;2023-05-01T10:55:46;94608.92;;;19.65;45.46
5777;BME280;2914;42.668;23.346;2023-05-01T11:01:30;94602.19;;;19.58;47.34
5777;BME280;2914;42.668;23.346;2023-05-01T11:04:00;94617.95;;;19.46;48.78
5777;BME280;2914;42.668;23.346;2023-05-01T11:06:31;94613.07;;;19.39;50.15
5777;BME280;2914;42.668;23.346;2023-05-01T11:09:00;94612.67;;;19.25;50.28
5777;BME280;2914;42.668;23.346;2023-05-01T11:11:49;94612.35;;;19.24;50.54
5777;BME280;2914;42.668;23.346;2023-05-01T11:14:18;94605.29;;;19.16;50.61
5777;BME280;2914;42.668;23.346;2023-05-01T11:16:47;94603.28;;;19.07;51.19
5777;BME280;2914;42.668;23.346;2023-05-01T11:22:30;94609.51;;;19.43;49.94
5777;BME280;2914;42.668;23.346;2023-05-01T11:25:00;94609.48;;;19.54;49.64
5777;BME280;2914;42.668;23.346;2023-05-01T11:27:31;94609.77;;;19.55;48.46
5777;BME280;2914;42.668;23.346;2023-05-01T11:30:00;94602.23;;;19.65;47.96
5777;BME280;2914;42.668;23.346;2023-05-01T11:32:29;94603.41;;;19.56;47.44
5777;BME280;2914;42.668;23.346;2023-05-01T11:34:58;94617.58;;;19.49;47.95
5777;BME280;2914;42.668;23.346;2023-05-01T11:37:40;94609.20;;;19.31;48.20
5777;BME280;2914;42.668;23.346;2023-05-01T11:40:21;94609.86;;;19.33;48.91
5777;BME280;2914;42.668;23.346;2023-05-01T11:45:42;94598.46;;;19.24;48.61
5777;BME280;2914;42.668;23.346;2023-05-01T11:50:53;94603.88;;;19.20;49.81
5777;BME280;2914;42.668;23.346;2023-05-01T11:55:58;94598.56;;;19.38;48.55
5777;BME280;2914;42.668;23.346;2023-05-01T12:01:09;94610.84;;;19.14;49.03
5777;BME280;2914;42.668;23.346;2023-05-01T12:03:42;94607.69;;;19.04;48.19
5777;BME280;2914;42.668;23.346;2023-05-01T12:08:50;94611.89;;;18.92;48.30
5777;BME280;2914;42.668;23.346;2023-05-01T12:13:57;94619.72;;;19.22;48.26
5777;BME280;2914;42.668;23.346;2023-05-01T12:19:04;94610.30;;;19.26;44.46
5777;BME280;2914;42.668;23.346;2023-05-01T12:21:34;94629.28;;;19.20;44.93
5777;BME280;2914;42.668;23.346;2023-05-01T12:24:11;94641.98;;;19.01;44.47
5777;BME280;2914;42.668;23.346;2023-05-01T12:29:22;94621.61;;;18.67;45.73
5777;BME280;2914;42.668;23.346;2023-05-01T12:34:36;94625.34;;;18.62;45.74
5777;BME280;2914;42.668;23.346;2023-05-01T12:37:05;94625.28;;;18.55;45.76
5777;BME280;2914;42.668;23.346;2023-05-01T12:39:39;94623.23;;;18.57;46.08
5777;BME280;2914;42.668;23.346;2023-05-01T12:42:14;94641.30;;;18.55;45.76
5777;BME280;2914;42.668;23.346;2023-05-01T12:44:44;94627.17;;;18.40;45.45
5777;BME280;2914;42.668;23.346;2023-05-01T12:50:02;94645.88;;;18.61;49.75
5777;BME280;2914;42.668;23.346;2023-05-01T12:52:32;94627.50;;;18.62;49.60
5777;BME280;2914;42.668;23.346;2023-05-01T12:57:53;94615.75;;;18.78;49.87
5777;BME280;2914;42.668;23.346;2023-05-01T13:03:03;94627.84;;;18.85;48.58
5777;BME280;2914;42.668;23.346;2023-05-01T13:08:10;94618.41;;;18.57;48.53
5777;BME280;2914;42.668;23.346;2023-05-01T13:10:39;94616.06;;;18.58;48.06
5777;BME280;2914;42.668;23.346;2023-05-01T13:13:09;94636.72;;;18.60;48.52
5777;BME280;2914;42.668;23.346;2023-05-01T13:15:38;94628.90;;;18.58;48.40
5777;BME280;2914;42.668;23.346;2023-05-01T13:18:10;94628.58;;;18.68;48.40
5777;BME280;2914;42.668;23.346;2023-05-01T13:20:39;94621.34;;;18.84;49.58
5777;BME280;2914;42.668;23.346;2023-05-01T13:25:55;94621.41;;;18.58;52.60
5777;BME280;2914;42.668;23.346;2023-05-01T13:28:24;94628.64;;;18.42;51.85
5777;BME280;2914;42.668;23.346;2023-05-01T13:30:53;94636.41;;;18.48;51.30
5777;BME280;2914;42.668;23.346;2023-05-01T13:33:22;94635.14;;;18.55;51.37
5777;BME280;2914;42.668;23.346;2023-05-01T13:35:51;94649.77;;;18.48;52.31
5777;BME280;2914;42.668;23.346;2023-05-01T13:38:20;94653.11;;;18.20;53.13
5777;BME280;2914;42.668;23.346;2023-05-01T13:40:51;94649.03;;;18.39;52.77
5777;BME280;2914;42.668;23.346;2023-05-01T13:43:20;94646.24;;;18.47;53.04
5777;BME280;2914;42.668;23.346;2023-05-01T13:45:50;94651.34;;;18.42;52.63
5777;BME280;2914;42.668;23.346;2023-05-01T13:48:21;94649.47;;;18.32;52.72
5777;BME280;2914;42.668;23.346;2023-05-01T13:50:50;94667.66;;;18.43;52.82
5777;BME280;2914;42.668;23.346;2023-05-01T13:53:19;94654.02;;;18.42;51.38
5777;BME280;2914;42.668;23.346;2023-05-01T13:55:48;94664.39;;;18.26;51.27
5777;BME280;2914;42.668;23.346;2023-05-01T13:58:17;94665.44;;;18.36;50.85
5777;BME280;2914;42.668;23.346;2023-05-01T14:00:46;94657.23;;;18.38;50.34
5777;BME280;2914;42.668;23.346;2023-05-01T14:03:15;94653.61;;;18.35;50.03
5777;BME280;2914;42.668;23.346;2023-05-01T14:05:45;94678.84;;;18.32;50.21
5777;BME280;2914;42.668;23.346;2023-05-01T14:08:14;94677.69;;;18.30;50.84
5777;BME280;2914;42.668;23.346;2023-05-01T14:10:43;94674.88;;;18.28;51.67
5777;BME280;2914;42.668;23.346;2023-05-01T14:13:14;94666.95;;;18.35;51.82
5777;BME280;2914;42.668;23.346;2023-05-01T14:15:45;94656.66;;;18.31;52.30
5777;BME280;2914;42.668;23.346;2023-05-01T14:18:16;94649.03;;;18.39;52.54
5777;BME280;2914;42.668;23.346;2023-05-01T14:20:46;94670.94;;;18.50;52.13